Главная страница
METAR-TAF:

METAR-TAF

Аэропорты :

Кристиансанн, Норвегия

широта: 58-12N, долгота: 008-05E, высота над уровнем моря: 1 м

Текущие метеонаблюдения

Эта сводка был подготовлена 35 минут назад, в 01:50 UTC
Ветер 2 Узел переменных направлений
Температура 5°C
Влажность 93%
Давление 1020 hPa
Видимость: 2400 м

METAR: ENCN 180150Z AUTO VRB02KT 2400 NCD 05/04 Q1020

Время: 04:25 (02:25 UTC)

Прогноз

Эта сводка был подготовлена 6 часа и 43 минут назад, в 19:42 UTC
Прогноз действительный с 17-го 19 UTC до 17-го 21 UTC
Ветер 5 Узел переменных направлений
Видимость 10 км и более
небольшая облачность на высоте 500 фута
Вероятность 30%
С 17-го 20 UTC до 17-го 21 UTC
Видимость: 1500 м
Рассеянная облачность на высоте 300 фута
клочья тумана

TAF: ENCN 171942Z 1719/1721 VRB05KT 9999 FEW005 PROB30 1720/1721 1500 BCFG BKN003

Метеонаблюдения и прогнозы для более 4000 аэропортов (сводки METAR и TAF).

Имеющиеся станции представлены на карте желтыми и красными точками.

Чтобы увидеть название станции, наведите на нее мышь.

Затем щелкните, чтобы увидеть метеонаблюдения и метеопрогнозы.

Управление картой: чтобы увеличить масштаб, щелкните зеленые кнопки с черным крестиком; чтобы уменьшить масштаб, щелкните зеленую кнопку с тире; для просмотра соседних карт щелкайте зеленые стрелки.


METAR-TAF: